sensor_id;sensor_type;location;lat;lon;timestamp;pressure;altitude;pressure_sealevel;temperature;humidity
21902;BME280;11115;46.038;14.612;2023-04-06T00:00:51;98681.66;;;0.16;100.00
21902;BME280;11115;46.038;14.612;2023-04-06T00:03:32;98665.66;;;-0.27;100.00
21902;BME280;11115;46.038;14.612;2023-04-06T00:06:16;98679.75;;;-0.19;100.00
21902;BME280;11115;46.038;14.612;2023-04-06T00:08:47;98655.66;;;-0.15;100.00
21902;BME280;11115;46.038;14.612;2023-04-06T00:11:18;98673.13;;;0.12;100.00
21902;BME280;11115;46.038;14.612;2023-04-06T00:13:54;98671.25;;;0.01;100.00
21902;BME280;11115;46.038;14.612;2023-04-06T00:16:22;98672.41;;;0.17;100.00
21902;BME280;11115;46.038;14.612;2023-04-06T00:19:03;98666.88;;;0.00;100.00
21902;BME280;11115;46.038;14.612;2023-04-06T00:21:38;98669.22;;;-0.04;100.00
21902;BME280;11115;46.038;14.612;2023-04-06T00:24:13;98673.59;;;-0.03;100.00
21902;BME280;11115;46.038;14.612;2023-04-06T00:26:55;98669.81;;;-0.25;100.00
21902;BME280;11115;46.038;14.612;2023-04-06T00:29:25;98659.88;;;-0.31;100.00
21902;BME280;11115;46.038;14.612;2023-04-06T00:32:08;98667.34;;;-0.15;100.00
21902;BME280;11115;46.038;14.612;2023-04-06T00:34:40;98669.91;;;-0.20;100.00
21902;BME280;11115;46.038;14.612;2023-04-06T00:37:11;98661.28;;;-0.40;100.00
21902;BME280;11115;46.038;14.612;2023-04-06T00:39:44;98674.41;;;-0.37;100.00
21902;BME280;11115;46.038;14.612;2023-04-06T00:42:15;98668.94;;;-0.49;100.00
21902;BME280;11115;46.038;14.612;2023-04-06T00:45:00;98672.13;;;-0.52;100.00
21902;BME280;11115;46.038;14.612;2023-04-06T00:47:30;98670.78;;;-0.73;100.00
21902;BME280;11115;46.038;14.612;2023-04-06T00:50:16;98677.06;;;-0.61;100.00
21902;BME280;11115;46.038;14.612;2023-04-06T00:52:53;98680.81;;;-1.03;100.00
21902;BME280;11115;46.038;14.612;2023-04-06T00:55:28;98681.09;;;-0.93;100.00
21902;BME280;11115;46.038;14.612;2023-04-06T00:58:02;98676.03;;;-0.89;100.00
21902;BME280;11115;46.038;14.612;2023-04-06T01:00:44;98675.53;;;-1.16;100.00
21902;BME280;11115;46.038;14.612;2023-04-06T01:03:20;98669.09;;;-1.34;100.00
21902;BME280;11115;46.038;14.612;2023-04-06T01:05:53;98678.44;;;-1.11;100.00
21902;BME280;11115;46.038;14.612;2023-04-06T01:08:34;98680.34;;;-1.00;100.00
21902;BME280;11115;46.038;14.612;2023-04-06T01:11:33;98678.09;;;-1.03;100.00
21902;BME280;11115;46.038;14.612;2023-04-06T01:14:08;98667.41;;;-0.86;100.00
21902;BME280;11115;46.038;14.612;2023-04-06T01:17:12;98649.34;;;-0.93;100.00
21902;BME280;11115;46.038;14.612;2023-04-06T01:20:09;98665.56;;;-1.04;100.00
21902;BME280;11115;46.038;14.612;2023-04-06T01:22:46;98675.97;;;-1.31;100.00
21902;BME280;11115;46.038;14.612;2023-04-06T01:25:20;98672.41;;;-1.13;100.00
21902;BME280;11115;46.038;14.612;2023-04-06T01:28:17;98661.59;;;-1.20;100.00
21902;BME280;11115;46.038;14.612;2023-04-06T01:31:06;98650.09;;;-1.15;100.00
21902;BME280;11115;46.038;14.612;2023-04-06T01:33:42;98664.66;;;-0.98;100.00
21902;BME280;11115;46.038;14.612;2023-04-06T01:36:18;98675.09;;;-0.83;100.00
21902;BME280;11115;46.038;14.612;2023-04-06T01:38:53;98668.88;;;-1.02;100.00
21902;BME280;11115;46.038;14.612;2023-04-06T01:41:33;98673.56;;;-0.91;100.00
21902;BME280;11115;46.038;14.612;2023-04-06T01:44:09;98672.78;;;-0.98;100.00
21902;BME280;11115;46.038;14.612;2023-04-06T01:46:40;98667.59;;;-1.00;100.00
21902;BME280;11115;46.038;14.612;2023-04-06T01:49:17;98658.22;;;-1.15;100.00
21902;BME280;11115;46.038;14.612;2023-04-06T01:51:56;98668.53;;;-1.06;100.00
21902;BME280;11115;46.038;14.612;2023-04-06T01:54:26;98667.41;;;-1.16;100.00
21902;BME280;11115;46.038;14.612;2023-04-06T01:57:14;98661.69;;;-1.27;100.00
21902;BME280;11115;46.038;14.612;2023-04-06T02:00:08;98655.53;;;-1.34;100.00
21902;BME280;11115;46.038;14.612;2023-04-06T02:03:00;98660.00;;;-1.09;100.00
21902;BME280;11115;46.038;14.612;2023-04-06T02:05:34;98662.56;;;-0.96;100.00
21902;BME280;11115;46.038;14.612;2023-04-06T02:08:21;98659.81;;;-1.26;100.00
21902;BME280;11115;46.038;14.612;2023-04-06T02:10:53;98658.16;;;-1.27;100.00
21902;BME280;11115;46.038;14.612;2023-04-06T02:13:52;98653.41;;;-1.32;100.00
21902;BME280;11115;46.038;14.612;2023-04-06T02:16:51;98651.38;;;-1.36;100.00
21902;BME280;11115;46.038;14.612;2023-04-06T02:19:28;98661.47;;;-1.25;100.00
21902;BME280;11115;46.038;14.612;2023-04-06T02:22:01;98659.59;;;-1.25;100.00
21902;BME280;11115;46.038;14.612;2023-04-06T02:24:58;98660.53;;;-1.19;100.00
21902;BME280;11115;46.038;14.612;2023-04-06T02:27:32;98661.34;;;-1.30;100.00
21902;BME280;11115;46.038;14.612;2023-04-06T02:30:15;98641.16;;;-1.34;100.00
21902;BME280;11115;46.038;14.612;2023-04-06T02:32:50;98644.03;;;-1.17;100.00
21902;BME280;11115;46.038;14.612;2023-04-06T02:35:59;98657.19;;;-1.33;100.00
21902;BME280;11115;46.038;14.612;2023-04-06T02:38:40;98651.94;;;-1.46;100.00
21902;BME280;11115;46.038;14.612;2023-04-06T02:41:11;98660.34;;;-1.36;100.00
21902;BME280;11115;46.038;14.612;2023-04-06T02:43:44;98651.19;;;-1.53;100.00
21902;BME280;11115;46.038;14.612;2023-04-06T02:46:20;98653.34;;;-1.80;100.00
21902;BME280;11115;46.038;14.612;2023-04-06T02:48:52;98653.22;;;-1.85;100.00
21902;BME280;11115;46.038;14.612;2023-04-06T02:51:28;98653.44;;;-1.87;100.00
21902;BME280;11115;46.038;14.612;2023-04-06T02:54:23;98631.19;;;-1.77;100.00
21902;BME280;11115;46.038;14.612;2023-04-06T02:56:51;98656.38;;;-1.88;100.00
21902;BME280;11115;46.038;14.612;2023-04-06T02:59:58;98647.69;;;-1.78;100.00
21902;BME280;11115;46.038;14.612;2023-04-06T03:02:37;98652.44;;;-1.56;100.00
21902;BME280;11115;46.038;14.612;2023-04-06T03:05:16;98649.97;;;-1.57;100.00
21902;BME280;11115;46.038;14.612;2023-04-06T03:07:47;98650.72;;;-1.50;100.00
21902;BME280;11115;46.038;14.612;2023-04-06T03:10:35;98649.06;;;-1.69;100.00
21902;BME280;11115;46.038;14.612;2023-04-06T03:13:09;98638.13;;;-1.81;100.00
21902;BME280;11115;46.038;14.612;2023-04-06T03:15:50;98644.75;;;-1.59;100.00
21902;BME280;11115;46.038;14.612;2023-04-06T03:18:44;98628.66;;;-1.54;100.00
21902;BME280;11115;46.038;14.612;2023-04-06T03:21:23;98646.97;;;-1.67;100.00
21902;BME280;11115;46.038;14.612;2023-04-06T03:24:26;98647.19;;;-1.69;100.00
21902;BME280;11115;46.038;14.612;2023-04-06T03:26:55;98638.28;;;-1.94;100.00
21902;BME280;11115;46.038;14.612;2023-04-06T03:29:45;98641.59;;;-2.10;100.00
21902;BME280;11115;46.038;14.612;2023-04-06T03:32:24;98646.47;;;-2.01;100.00
21902;BME280;11115;46.038;14.612;2023-04-06T03:34:52;98593.63;;;-2.10;100.00
21902;BME280;11115;46.038;14.612;2023-04-06T03:37:24;98645.53;;;-1.70;100.00
21902;BME280;11115;46.038;14.612;2023-04-06T03:40:02;98660.38;;;-1.54;100.00
21902;BME280;11115;46.038;14.612;2023-04-06T03:42:43;98652.44;;;-1.56;100.00
21902;BME280;11115;46.038;14.612;2023-04-06T03:45:18;98649.31;;;-1.71;100.00
21902;BME280;11115;46.038;14.612;2023-04-06T03:47:52;98653.72;;;-1.58;100.00
21902;BME280;11115;46.038;14.612;2023-04-06T03:50:24;98649.72;;;-1.56;100.00
21902;BME280;11115;46.038;14.612;2023-04-06T03:52:56;98654.63;;;-1.83;100.00
21902;BME280;11115;46.038;14.612;2023-04-06T03:55:27;98650.03;;;-2.00;100.00
21902;BME280;11115;46.038;14.612;2023-04-06T03:58:02;98656.00;;;-1.92;100.00
21902;BME280;11115;46.038;14.612;2023-04-06T04:00:35;98658.97;;;-2.00;100.00
21902;BME280;11115;46.038;14.612;2023-04-06T04:03:27;98656.69;;;-2.21;100.00
21902;BME280;11115;46.038;14.612;2023-04-06T04:06:00;98661.97;;;-2.26;100.00
21902;BME280;11115;46.038;14.612;2023-04-06T04:08:43;98669.69;;;-2.05;100.00
21902;BME280;11115;46.038;14.612;2023-04-06T04:11:14;98664.72;;;-2.08;100.00
21902;BME280;11115;46.038;14.612;2023-04-06T04:13:48;98665.44;;;-2.19;100.00
21902;BME280;11115;46.038;14.612;2023-04-06T04:16:19;98664.97;;;-1.91;100.00
21902;BME280;11115;46.038;14.612;2023-04-06T04:18:50;98665.41;;;-1.76;100.00
21902;BME280;11115;46.038;14.612;2023-04-06T04:21:23;98665.34;;;-2.13;100.00
21902;BME280;11115;46.038;14.612;2023-04-06T04:24:02;98653.00;;;-2.27;100.00
21902;BME280;11115;46.038;14.612;2023-04-06T04:26:35;98663.41;;;-2.49;100.00
21902;BME280;11115;46.038;14.612;2023-04-06T04:29:08;98665.53;;;-2.32;100.00
21902;BME280;11115;46.038;14.612;2023-04-06T04:31:42;98675.00;;;-2.41;100.00
21902;BME280;11115;46.038;14.612;2023-04-06T04:34:16;98666.44;;;-2.38;100.00
21902;BME280;11115;46.038;14.612;2023-04-06T04:36:52;98677.41;;;-2.33;100.00
21902;BME280;11115;46.038;14.612;2023-04-06T04:39:46;98679.22;;;-2.46;100.00
21902;BME280;11115;46.038;14.612;2023-04-06T04:42:19;98662.13;;;-2.46;100.00
21902;BME280;11115;46.038;14.612;2023-04-06T04:44:51;98673.66;;;-2.32;100.00
21902;BME280;11115;46.038;14.612;2023-04-06T04:47:42;98675.44;;;-2.20;100.00
21902;BME280;11115;46.038;14.612;2023-04-06T04:50:17;98680.66;;;-2.00;100.00
21902;BME280;11115;46.038;14.612;2023-04-06T04:53:13;98681.94;;;-2.02;100.00
21902;BME280;11115;46.038;14.612;2023-04-06T04:55:47;98688.22;;;-1.84;100.00
21902;BME280;11115;46.038;14.612;2023-04-06T04:58:20;98693.59;;;-1.77;100.00
21902;BME280;11115;46.038;14.612;2023-04-06T05:00:59;98690.63;;;-1.94;100.00
21902;BME280;11115;46.038;14.612;2023-04-06T05:03:34;98673.78;;;-2.21;100.00
21902;BME280;11115;46.038;14.612;2023-04-06T05:06:16;98694.56;;;-1.90;100.00
21902;BME280;11115;46.038;14.612;2023-04-06T05:09:08;98694.75;;;-2.09;100.00
21902;BME280;11115;46.038;14.612;2023-04-06T05:12:13;98605.56;;;-2.61;100.00
21902;BME280;11115;46.038;14.612;2023-04-06T05:15:09;98677.63;;;-2.28;100.00
21902;BME280;11115;46.038;14.612;2023-04-06T05:18:04;98617.81;;;-2.33;100.00
21902;BME280;11115;46.038;14.612;2023-04-06T05:20:38;98695.06;;;-1.99;100.00
21902;BME280;11115;46.038;14.612;2023-04-06T05:23:11;98674.72;;;-2.08;100.00
21902;BME280;11115;46.038;14.612;2023-04-06T05:26:06;98693.78;;;-1.97;100.00
21902;BME280;11115;46.038;14.612;2023-04-06T05:28:49;98680.91;;;-2.01;100.00
21902;BME280;11115;46.038;14.612;2023-04-06T05:31:33;98701.91;;;-1.72;100.00
21902;BME280;11115;46.038;14.612;2023-04-06T05:34:08;98685.63;;;-1.72;100.00
21902;BME280;11115;46.038;14.612;2023-04-06T05:36:51;98697.75;;;-1.56;100.00
21902;BME280;11115;46.038;14.612;2023-04-06T05:39:25;98705.13;;;-1.45;100.00
21902;BME280;11115;46.038;14.612;2023-04-06T05:42:11;98704.53;;;-1.29;100.00
21902;BME280;11115;46.038;14.612;2023-04-06T05:45:06;98699.00;;;-1.04;100.00
21902;BME280;11115;46.038;14.612;2023-04-06T05:48:08;98697.47;;;-1.00;100.00
21902;BME280;11115;46.038;14.612;2023-04-06T05:50:50;98707.19;;;-0.92;100.00
21902;BME280;11115;46.038;14.612;2023-04-06T05:53:38;98715.81;;;-0.95;100.00
21902;BME280;11115;46.038;14.612;2023-04-06T05:56:12;98681.38;;;-0.83;100.00
21902;BME280;11115;46.038;14.612;2023-04-06T05:58:42;98699.09;;;-0.39;100.00
21902;BME280;11115;46.038;14.612;2023-04-06T06:01:18;98708.81;;;-0.31;100.00
21902;BME280;11115;46.038;14.612;2023-04-06T06:03:55;98701.78;;;0.03;100.00
21902;BME280;11115;46.038;14.612;2023-04-06T06:06:29;98711.31;;;-0.06;100.00
21902;BME280;11115;46.038;14.612;2023-04-06T06:09:20;98706.25;;;-0.03;100.00
21902;BME280;11115;46.038;14.612;2023-04-06T06:12:17;98708.84;;;-0.08;100.00
21902;BME280;11115;46.038;14.612;2023-04-06T06:14:51;98709.34;;;0.24;100.00
21902;BME280;11115;46.038;14.612;2023-04-06T06:17:41;98639.91;;;0.10;100.00
21902;BME280;11115;46.038;14.612;2023-04-06T06:20:17;98706.00;;;0.34;100.00
21902;BME280;11115;46.038;14.612;2023-04-06T06:22:52;98698.31;;;-0.04;100.00
21902;BME280;11115;46.038;14.612;2023-04-06T06:25:29;98698.81;;;0.40;100.00
21902;BME280;11115;46.038;14.612;2023-04-06T06:28:10;98672.75;;;0.44;100.00
21902;BME280;11115;46.038;14.612;2023-04-06T06:30:46;98687.56;;;0.36;100.00
21902;BME280;11115;46.038;14.612;2023-04-06T06:33:31;98694.66;;;0.37;100.00
21902;BME280;11115;46.038;14.612;2023-04-06T06:36:00;98680.56;;;0.52;100.00
21902;BME280;11115;46.038;14.612;2023-04-06T06:38:33;98679.81;;;0.68;100.00
21902;BME280;11115;46.038;14.612;2023-04-06T06:41:05;98686.63;;;0.42;100.00
21902;BME280;11115;46.038;14.612;2023-04-06T06:43:38;98664.56;;;0.55;100.00
21902;BME280;11115;46.038;14.612;2023-04-06T06:46:27;98694.41;;;1.31;100.00
21902;BME280;11115;46.038;14.612;2023-04-06T06:48:58;98667.16;;;1.02;100.00
21902;BME280;11115;46.038;14.612;2023-04-06T06:51:38;98680.09;;;1.24;100.00
21902;BME280;11115;46.038;14.612;2023-04-06T06:54:15;98683.13;;;1.39;100.00
21902;BME280;11115;46.038;14.612;2023-04-06T06:56:47;98677.91;;;1.37;100.00
21902;BME280;11115;46.038;14.612;2023-04-06T06:59:18;98674.63;;;1.69;100.00
21902;BME280;11115;46.038;14.612;2023-04-06T07:01:57;98665.13;;;1.71;100.00
21902;BME280;11115;46.038;14.612;2023-04-06T07:04:27;98679.03;;;2.03;100.00
21902;BME280;11115;46.038;14.612;2023-04-06T07:06:59;98679.66;;;2.27;100.00
21902;BME280;11115;46.038;14.612;2023-04-06T07:09:29;98671.56;;;2.32;100.00
21902;BME280;11115;46.038;14.612;2023-04-06T07:12:00;98680.91;;;2.36;100.00
21902;BME280;11115;46.038;14.612;2023-04-06T07:14:31;98679.44;;;2.51;100.00
21902;BME280;11115;46.038;14.612;2023-04-06T07:17:07;98677.63;;;2.78;100.00
21902;BME280;11115;46.038;14.612;2023-04-06T07:19:39;98682.34;;;2.83;100.00
21902;BME280;11115;46.038;14.612;2023-04-06T07:22:13;98678.03;;;3.09;100.00
21902;BME280;11115;46.038;14.612;2023-04-06T07:24:47;98682.81;;;3.23;100.00
21902;BME280;11115;46.038;14.612;2023-04-06T07:27:31;98680.97;;;3.56;100.00
21902;BME280;11115;46.038;14.612;2023-04-06T07:30:04;98673.00;;;3.49;100.00
21902;BME280;11115;46.038;14.612;2023-04-06T07:32:48;98679.09;;;3.61;100.00
21902;BME280;11115;46.038;14.612;2023-04-06T07:35:28;98656.97;;;3.63;100.00
21902;BME280;11115;46.038;14.612;2023-04-06T07:38:14;98670.38;;;3.64;100.00
21902;BME280;11115;46.038;14.612;2023-04-06T07:40:48;98661.13;;;4.03;100.00
21902;BME280;11115;46.038;14.612;2023-04-06T07:43:18;98678.53;;;4.23;100.00
21902;BME280;11115;46.038;14.612;2023-04-06T07:45:47;98657.97;;;3.84;100.00
21902;BME280;11115;46.038;14.612;2023-04-06T07:48:21;98674.66;;;4.19;100.00
21902;BME280;11115;46.038;14.612;2023-04-06T07:50:51;98667.72;;;4.44;100.00
21902;BME280;11115;46.038;14.612;2023-04-06T07:53:25;98654.59;;;4.46;100.00
21902;BME280;11115;46.038;14.612;2023-04-06T07:56:05;98662.03;;;4.13;100.00
21902;BME280;11115;46.038;14.612;2023-04-06T07:58:49;98654.41;;;4.20;100.00
21902;BME280;11115;46.038;14.612;2023-04-06T08:01:26;98652.72;;;4.09;100.00
21902;BME280;11115;46.038;14.612;2023-04-06T08:04:03;98643.75;;;4.24;100.00
21902;BME280;11115;46.038;14.612;2023-04-06T08:06:34;98652.28;;;4.80;100.00
21902;BME280;11115;46.038;14.612;2023-04-06T08:09:07;98638.38;;;4.97;100.00
21902;BME280;11115;46.038;14.612;2023-04-06T08:11:45;98644.53;;;5.39;100.00
21902;BME280;11115;46.038;14.612;2023-04-06T08:14:17;98637.13;;;5.45;100.00
21902;BME280;11115;46.038;14.612;2023-04-06T08:16:53;98634.66;;;5.43;100.00
21902;BME280;11115;46.038;14.612;2023-04-06T08:19:24;98633.63;;;5.80;100.00
21902;BME280;11115;46.038;14.612;2023-04-06T08:22:03;98608.91;;;5.85;100.00
21902;BME280;11115;46.038;14.612;2023-04-06T08:24:40;98625.91;;;5.72;100.00
21902;BME280;11115;46.038;14.612;2023-04-06T08:27:22;98627.28;;;5.85;100.00
21902;BME280;11115;46.038;14.612;2023-04-06T08:29:51;98621.22;;;5.57;100.00
21902;BME280;11115;46.038;14.612;2023-04-06T08:32:23;98629.22;;;5.89;100.00
21902;BME280;11115;46.038;14.612;2023-04-06T08:34:58;98623.69;;;6.40;100.00
21902;BME280;11115;46.038;14.612;2023-04-06T08:37:41;98621.16;;;6.59;100.00
21902;BME280;11115;46.038;14.612;2023-04-06T08:40:13;98624.56;;;6.00;100.00
21902;BME280;11115;46.038;14.612;2023-04-06T08:42:56;98619.28;;;6.44;100.00
21902;BME280;11115;46.038;14.612;2023-04-06T08:45:33;98613.28;;;5.96;97.56
21902;BME280;11115;46.038;14.612;2023-04-06T08:48:05;98592.97;;;6.23;100.00
21902;BME280;11115;46.038;14.612;2023-04-06T08:50:40;98604.75;;;6.28;97.47
21902;BME280;11115;46.038;14.612;2023-04-06T08:53:13;98603.59;;;6.45;94.59
21902;BME280;11115;46.038;14.612;2023-04-06T08:55:53;98599.88;;;6.85;96.67
21902;BME280;11115;46.038;14.612;2023-04-06T08:58:25;98604.69;;;7.18;100.00
21902;BME280;11115;46.038;14.612;2023-04-06T09:01:11;98602.75;;;7.19;98.14
21902;BME280;11115;46.038;14.612;2023-04-06T09:03:49;98571.66;;;7.18;97.06
21902;BME280;11115;46.038;14.612;2023-04-06T09:06:19;98583.09;;;7.75;100.00
21902;BME280;11115;46.038;14.612;2023-04-06T09:08:52;98590.81;;;7.73;100.00
21902;BME280;11115;46.038;14.612;2023-04-06T09:11:26;98588.44;;;7.95;100.00
21902;BME280;11115;46.038;14.612;2023-04-06T09:13:57;98581.38;;;8.13;99.95
21902;BME280;11115;46.038;14.612;2023-04-06T09:16:40;98565.41;;;7.81;96.58
21902;BME280;11115;46.038;14.612;2023-04-06T09:19:17;98568.50;;;7.74;81.75
21902;BME280;11115;46.038;14.612;2023-04-06T09:21:46;98556.66;;;8.03;89.42
21902;BME280;11115;46.038;14.612;2023-04-06T09:24:18;98566.88;;;8.26;95.12
21902;BME280;11115;46.038;14.612;2023-04-06T09:26:55;98568.47;;;8.37;86.00
21902;BME280;11115;46.038;14.612;2023-04-06T09:29:27;98569.69;;;8.21;83.63
21902;BME280;11115;46.038;14.612;2023-04-06T09:32:04;98549.88;;;8.19;78.95
21902;BME280;11115;46.038;14.612;2023-04-06T09:34:41;98556.09;;;8.59;89.06
21902;BME280;11115;46.038;14.612;2023-04-06T09:37:19;98544.94;;;8.69;90.98
21902;BME280;11115;46.038;14.612;2023-04-06T09:39:49;98550.25;;;9.22;96.38
21902;BME280;11115;46.038;14.612;2023-04-06T09:42:24;98536.91;;;8.48;71.09
21902;BME280;11115;46.038;14.612;2023-04-06T09:45:09;98542.53;;;8.62;73.92
21902;BME280;11115;46.038;14.612;2023-04-06T09:47:46;98518.25;;;8.83;87.15
21902;BME280;11115;46.038;14.612;2023-04-06T09:50:27;98523.09;;;9.80;87.24
21902;BME280;11115;46.038;14.612;2023-04-06T09:53:05;98508.47;;;9.47;83.83
21902;BME280;11115;46.038;14.612;2023-04-06T09:55:48;98509.59;;;9.46;80.79
21902;BME280;11115;46.038;14.612;2023-04-06T09:58:28;98511.78;;;9.11;70.23
21902;BME280;11115;46.038;14.612;2023-04-06T10:01:15;98502.81;;;9.71;82.29
21902;BME280;11115;46.038;14.612;2023-04-06T10:07:12;98490.34;;;9.73;79.84
21902;BME280;11115;46.038;14.612;2023-04-06T10:09:50;98487.84;;;10.04;74.09
21902;BME280;11115;46.038;14.612;2023-04-06T10:12:26;98488.31;;;9.79;62.01
21902;BME280;11115;46.038;14.612;2023-04-06T10:14:56;98484.72;;;10.25;73.74
21902;BME280;11115;46.038;14.612;2023-04-06T10:17:38;98480.91;;;10.21;67.96
21902;BME280;11115;46.038;14.612;2023-04-06T10:20:46;98480.81;;;10.40;71.55
21902;BME280;11115;46.038;14.612;2023-04-06T10:23:39;98472.50;;;10.67;67.06
21902;BME280;11115;46.038;14.612;2023-04-06T10:26:16;98478.03;;;10.67;61.98
21902;BME280;11115;46.038;14.612;2023-04-06T10:28:47;98421.78;;;10.58;60.07
21902;BME280;11115;46.038;14.612;2023-04-06T10:31:27;98471.00;;;10.61;54.43
21902;BME280;11115;46.038;14.612;2023-04-06T10:34:03;98470.75;;;10.71;54.68
21902;BME280;11115;46.038;14.612;2023-04-06T10:36:45;98466.13;;;10.80;59.04
21902;BME280;11115;46.038;14.612;2023-04-06T10:39:24;98461.38;;;11.17;60.20
21902;BME280;11115;46.038;14.612;2023-04-06T10:42:06;98463.97;;;11.36;57.96
21902;BME280;11115;46.038;14.612;2023-04-06T10:44:45;98452.91;;;11.36;57.56
21902;BME280;11115;46.038;14.612;2023-04-06T10:47:24;98448.69;;;11.61;65.71
21902;BME280;11115;46.038;14.612;2023-04-06T10:50:01;98445.75;;;11.79;67.95
21902;BME280;11115;46.038;14.612;2023-04-06T10:52:29;98444.28;;;11.37;53.16
21902;BME280;11115;46.038;14.612;2023-04-06T10:55:21;98429.56;;;11.50;56.88
21902;BME280;11115;46.038;14.612;2023-04-06T10:57:53;98433.88;;;11.88;60.76
21902;BME280;11115;46.038;14.612;2023-04-06T11:00:45;98428.78;;;11.81;53.40
21902;BME280;11115;46.038;14.612;2023-04-06T11:03:18;98412.69;;;11.61;49.79
21902;BME280;11115;46.038;14.612;2023-04-06T11:05:53;98423.16;;;11.41;49.26
21902;BME280;11115;46.038;14.612;2023-04-06T11:08:33;98426.97;;;11.54;49.96
21902;BME280;11115;46.038;14.612;2023-04-06T11:11:15;98416.66;;;12.08;54.65
21902;BME280;11115;46.038;14.612;2023-04-06T11:14:01;98408.94;;;12.44;53.88
21902;BME280;11115;46.038;14.612;2023-04-06T11:16:38;98398.91;;;12.74;55.07
21902;BME280;11115;46.038;14.612;2023-04-06T11:19:07;98398.19;;;12.34;54.60
21902;BME280;11115;46.038;14.612;2023-04-06T11:21:49;98393.81;;;12.59;52.72
21902;BME280;11115;46.038;14.612;2023-04-06T11:24:21;98398.88;;;12.66;55.97
21902;BME280;11115;46.038;14.612;2023-04-06T11:26:58;98397.56;;;12.55;52.67
21902;BME280;11115;46.038;14.612;2023-04-06T11:29:30;98389.84;;;13.64;57.38
21902;BME280;11115;46.038;14.612;2023-04-06T11:32:10;98372.69;;;13.62;50.48
21902;BME280;11115;46.038;14.612;2023-04-06T11:34:41;98380.78;;;13.20;46.77
21902;BME280;11115;46.038;14.612;2023-04-06T11:37:17;98359.19;;;13.17;46.60
21902;BME280;11115;46.038;14.612;2023-04-06T11:39:54;98381.41;;;13.34;46.21
21902;BME280;11115;46.038;14.612;2023-04-06T11:42:26;98373.53;;;13.54;55.78
21902;BME280;11115;46.038;14.612;2023-04-06T11:45:00;98372.59;;;13.06;48.55
21902;BME280;11115;46.038;14.612;2023-04-06T11:47:42;98348.06;;;13.17;42.86
21902;BME280;11115;46.038;14.612;2023-04-06T11:50:13;98364.94;;;13.76;44.54
21902;BME280;11115;46.038;14.612;2023-04-06T11:52:45;98357.50;;;13.59;42.92
21902;BME280;11115;46.038;14.612;2023-04-06T11:55:18;98354.28;;;14.16;43.44
21902;BME280;11115;46.038;14.612;2023-04-06T11:58:01;98354.53;;;14.03;40.40
21902;BME280;11115;46.038;14.612;2023-04-06T12:00:35;98346.44;;;13.33;41.86
21902;BME280;11115;46.038;14.612;2023-04-06T12:03:07;98342.72;;;14.06;44.01
21902;BME280;11115;46.038;14.612;2023-04-06T12:05:44;98291.41;;;13.65;41.00
21902;BME280;11115;46.038;14.612;2023-04-06T12:08:26;98340.34;;;13.87;37.89
21902;BME280;11115;46.038;14.612;2023-04-06T12:10:57;98333.34;;;13.43;38.33
21902;BME280;11115;46.038;14.612;2023-04-06T12:13:30;98335.63;;;14.17;38.60
21902;BME280;11115;46.038;14.612;2023-04-06T12:16:05;98330.59;;;13.81;36.96
21902;BME280;11115;46.038;14.612;2023-04-06T12:18:37;98331.81;;;15.13;41.16
21902;BME280;11115;46.038;14.612;2023-04-06T12:21:09;98320.50;;;15.31;39.51
21902;BME280;11115;46.038;14.612;2023-04-06T12:23:39;98317.53;;;15.48;37.92
21902;BME280;11115;46.038;14.612;2023-04-06T12:26:08;98316.59;;;15.56;35.39
21902;BME280;11115;46.038;14.612;2023-04-06T12:28:40;98314.19;;;15.22;35.80
21902;BME280;11115;46.038;14.612;2023-04-06T12:31:15;98309.47;;;16.16;37.19
21902;BME280;11115;46.038;14.612;2023-04-06T12:33:48;98303.88;;;16.28;42.26
21902;BME280;11115;46.038;14.612;2023-04-06T12:36:20;98305.19;;;16.06;37.51
21902;BME280;11115;46.038;14.612;2023-04-06T12:39:03;98302.72;;;20.63;34.86
21902;BME280;11115;46.038;14.612;2023-04-06T12:41:37;98300.28;;;22.43;32.11
21902;BME280;11115;46.038;14.612;2023-04-06T12:44:12;98300.72;;;23.21;27.80
21902;BME280;11115;46.038;14.612;2023-04-06T12:46:45;98294.63;;;20.57;32.58
21902;BME280;11115;46.038;14.612;2023-04-06T12:49:17;98284.06;;;18.05;34.45
21902;BME280;11115;46.038;14.612;2023-04-06T12:51:49;98280.88;;;17.43;32.36
21902;BME280;11115;46.038;14.612;2023-04-06T12:54:21;98280.22;;;17.18;33.29
21902;BME280;11115;46.038;14.612;2023-04-06T12:56:50;98272.13;;;17.29;38.06
21902;BME280;11115;46.038;14.612;2023-04-06T12:59:22;98272.94;;;17.45;35.30
21902;BME280;11115;46.038;14.612;2023-04-06T13:01:57;98273.25;;;17.56;39.00
21902;BME280;11115;46.038;14.612;2023-04-06T13:04:28;98270.63;;;17.63;34.25
21902;BME280;11115;46.038;14.612;2023-04-06T13:07:13;98266.03;;;18.02;33.61
21902;BME280;11115;46.038;14.612;2023-04-06T13:09:48;98260.81;;;17.85;33.31
21902;BME280;11115;46.038;14.612;2023-04-06T13:12:25;98265.88;;;17.79;35.67
21902;BME280;11115;46.038;14.612;2023-04-06T13:14:55;98257.91;;;18.13;32.40
21902;BME280;11115;46.038;14.612;2023-04-06T13:17:34;98239.28;;;18.75;33.60
21902;BME280;11115;46.038;14.612;2023-04-06T13:20:05;98247.06;;;18.66;32.59
21902;BME280;11115;46.038;14.612;2023-04-06T13:22:39;98246.53;;;19.18;35.57
21902;BME280;11115;46.038;14.612;2023-04-06T13:25:15;98244.28;;;21.09;35.83
21902;BME280;11115;46.038;14.612;2023-04-06T13:27:48;98241.19;;;24.12;31.60
21902;BME280;11115;46.038;14.612;2023-04-06T13:30:21;98240.66;;;24.77;29.57
21902;BME280;11115;46.038;14.612;2023-04-06T13:32:54;98243.81;;;22.98;27.88
21902;BME280;11115;46.038;14.612;2023-04-06T13:35:25;98233.75;;;25.69;27.40
21902;BME280;11115;46.038;14.612;2023-04-06T13:37:54;98231.31;;;25.64;27.26
21902;BME280;11115;46.038;14.612;2023-04-06T13:40:30;98228.22;;;24.43;29.55
21902;BME280;11115;46.038;14.612;2023-04-06T13:43:07;98232.25;;;23.53;28.46